Terminal Aerodrome Forecast
Issued by NWS Grand Forks, ND

Home | Current Version | Previous Version | Graphics & Text | Print | Product List | Glossary On
Versions: 1 2 3 4 5 6 7 8 9 10 11 12 13 14
000
FTUS43 KFGF 152300
TAFFAR
TAF
KFAR 152338Z 1600/1624 13012KT P6SM BKN080
     FM160600 08018G25KT P6SM OVC050
     FM161100 05018G27KT 4SM -SN OVC025
     FM161700 04022G30KT P6SM BKN035=

USA.gov is the U.S. government's official web portal to all federal, state and local government web resources and services.